sensor_id;sensor_type;location;lat;lon;timestamp;pressure;altitude;pressure_sealevel;temperature;humidity
71465;BME280;59274;49.874;9.154;2022-09-09T00:06:42;99905.28;;;14.21;90.42
71465;BME280;59274;49.874;9.154;2022-09-09T00:09:16;99914.66;;;14.20;90.47
71465;BME280;59274;49.874;9.154;2022-09-09T00:12:04;99917.81;;;14.19;89.63
71465;BME280;59274;49.874;9.154;2022-09-09T00:14:51;99912.72;;;14.17;89.52
71465;BME280;59274;49.874;9.154;2022-09-09T00:17:31;99907.59;;;14.23;88.74
71465;BME280;59274;49.874;9.154;2022-09-09T00:20:01;99904.03;;;14.29;88.31
71465;BME280;59274;49.874;9.154;2022-09-09T00:22:29;99911.44;;;14.32;88.42
71465;BME280;59274;49.874;9.154;2022-09-09T00:28:02;99907.19;;;14.28;88.59
71465;BME280;59274;49.874;9.154;2022-09-09T00:30:34;99901.72;;;14.28;88.11
71465;BME280;59274;49.874;9.154;2022-09-09T00:33:03;99903.28;;;14.25;88.01
71465;BME280;59274;49.874;9.154;2022-09-09T00:35:38;99897.44;;;14.23;87.78
71465;BME280;59274;49.874;9.154;2022-09-09T00:38:17;99895.13;;;14.22;87.82
71465;BME280;59274;49.874;9.154;2022-09-09T00:41:00;99893.94;;;14.23;87.40
71465;BME280;59274;49.874;9.154;2022-09-09T00:43:31;99899.13;;;14.14;88.06
71465;BME280;59274;49.874;9.154;2022-09-09T00:46:41;99903.81;;;14.13;88.16
71465;BME280;59274;49.874;9.154;2022-09-09T00:55:03;99905.19;;;14.28;88.71
71465;BME280;59274;49.874;9.154;2022-09-09T00:57:26;99910.25;;;14.33;87.68
71465;BME280;59274;49.874;9.154;2022-09-09T01:08:05;99895.38;;;14.41;92.04
71465;BME280;59274;49.874;9.154;2022-09-09T01:13:02;99892.66;;;14.38;92.36
71465;BME280;59274;49.874;9.154;2022-09-09T01:15:31;99896.53;;;14.40;92.02
71465;BME280;59274;49.874;9.154;2022-09-09T01:18:10;99901.34;;;14.26;92.41
71465;BME280;59274;49.874;9.154;2022-09-09T01:26:18;99892.69;;;14.34;92.98
71465;BME280;59274;49.874;9.154;2022-09-09T01:28:50;99888.00;;;14.31;94.02
71465;BME280;59274;49.874;9.154;2022-09-09T01:31:39;99887.31;;;14.24;93.92
71465;BME280;59274;49.874;9.154;2022-09-09T01:34:14;99883.06;;;14.19;94.37
71465;BME280;59274;49.874;9.154;2022-09-09T01:37:07;99888.56;;;14.16;95.43
71465;BME280;59274;49.874;9.154;2022-09-09T01:39:33;99892.06;;;14.16;95.11
71465;BME280;59274;49.874;9.154;2022-09-09T01:42:00;99887.31;;;14.24;94.08
71465;BME280;59274;49.874;9.154;2022-09-09T01:44:27;99887.78;;;14.15;94.92
71465;BME280;59274;49.874;9.154;2022-09-09T01:46:54;99891.25;;;14.19;93.95
71465;BME280;59274;49.874;9.154;2022-09-09T01:49:20;99893.22;;;14.15;93.94
71465;BME280;59274;49.874;9.154;2022-09-09T01:51:49;99894.84;;;14.09;94.54
71465;BME280;59274;49.874;9.154;2022-09-09T01:54:17;99892.94;;;14.06;94.73
71465;BME280;59274;49.874;9.154;2022-09-09T02:02:14;99889.91;;;13.97;95.90
71465;BME280;59274;49.874;9.154;2022-09-09T02:04:45;99886.41;;;13.93;96.89
71465;BME280;59274;49.874;9.154;2022-09-09T02:07:19;99881.38;;;13.88;96.37
71465;BME280;59274;49.874;9.154;2022-09-09T02:09:51;99890.34;;;13.88;96.25
71465;BME280;59274;49.874;9.154;2022-09-09T02:12:22;99896.22;;;13.87;96.58
71465;BME280;59274;49.874;9.154;2022-09-09T02:14:56;99892.34;;;13.84;96.64
71465;BME280;59274;49.874;9.154;2022-09-09T02:17:28;99888.41;;;13.89;96.50
71465;BME280;59274;49.874;9.154;2022-09-09T02:20:14;99886.00;;;13.98;95.21
71465;BME280;59274;49.874;9.154;2022-09-09T02:22:43;99898.81;;;14.01;95.44
71465;BME280;59274;49.874;9.154;2022-09-09T02:25:13;99895.31;;;14.00;94.92
71465;BME280;59274;49.874;9.154;2022-09-09T02:27:41;99909.00;;;13.97;94.80
71465;BME280;59274;49.874;9.154;2022-09-09T02:30:09;99903.88;;;14.06;95.06
71465;BME280;59274;49.874;9.154;2022-09-09T02:32:36;99903.09;;;14.05;95.03
71465;BME280;59274;49.874;9.154;2022-09-09T02:35:13;99902.72;;;14.03;94.98
71465;BME280;59274;49.874;9.154;2022-09-09T02:37:41;99901.53;;;14.04;95.28
71465;BME280;59274;49.874;9.154;2022-09-09T02:40:16;99901.13;;;14.06;94.89
71465;BME280;59274;49.874;9.154;2022-09-09T02:42:44;99893.69;;;14.10;94.00
71465;BME280;59274;49.874;9.154;2022-09-09T02:45:19;99890.56;;;14.08;93.67
71465;BME280;59274;49.874;9.154;2022-09-09T02:50:26;99897.63;;;14.05;94.86
71465;BME280;59274;49.874;9.154;2022-09-09T02:55:58;99896.16;;;13.94;95.20
71465;BME280;59274;49.874;9.154;2022-09-09T02:58:26;99890.34;;;13.92;95.57
71465;BME280;59274;49.874;9.154;2022-09-09T03:00:52;99895.03;;;13.91;95.45
71465;BME280;59274;49.874;9.154;2022-09-09T03:03:19;99895.38;;;13.93;95.16
71465;BME280;59274;49.874;9.154;2022-09-09T03:05:45;99895.03;;;13.88;96.55
71465;BME280;59274;49.874;9.154;2022-09-09T03:08:12;99907.50;;;13.89;95.62
71465;BME280;59274;49.874;9.154;2022-09-09T03:10:39;99906.34;;;13.86;95.41
71465;BME280;59274;49.874;9.154;2022-09-09T03:13:05;99909.13;;;13.83;96.32
71465;BME280;59274;49.874;9.154;2022-09-09T03:15:34;99908.34;;;13.82;96.64
71465;BME280;59274;49.874;9.154;2022-09-09T03:18:00;99903.28;;;13.84;96.76
71465;BME280;59274;49.874;9.154;2022-09-09T03:20:27;99904.06;;;13.81;96.87
71465;BME280;59274;49.874;9.154;2022-09-09T03:22:54;99900.16;;;13.79;97.28
71465;BME280;59274;49.874;9.154;2022-09-09T03:25:20;99894.31;;;13.84;96.45
71465;BME280;59274;49.874;9.154;2022-09-09T03:27:48;99893.41;;;13.94;95.98
71465;BME280;59274;49.874;9.154;2022-09-09T03:30:14;99889.91;;;13.93;97.03
71465;BME280;59274;49.874;9.154;2022-09-09T03:32:41;99889.91;;;13.97;96.24
71465;BME280;59274;49.874;9.154;2022-09-09T03:35:07;99884.00;;;14.02;95.85
71465;BME280;59274;49.874;9.154;2022-09-09T03:37:32;99897.25;;;14.03;96.65
71465;BME280;59274;49.874;9.154;2022-09-09T03:39:58;99897.59;;;14.09;95.10
71465;BME280;59274;49.874;9.154;2022-09-09T03:42:25;99892.50;;;14.11;95.88
71465;BME280;59274;49.874;9.154;2022-09-09T03:44:50;99888.66;;;14.05;95.47
71465;BME280;59274;49.874;9.154;2022-09-09T03:47:17;99885.16;;;14.04;95.09
71465;BME280;59274;49.874;9.154;2022-09-09T03:49:44;99892.91;;;14.09;95.32
71465;BME280;59274;49.874;9.154;2022-09-09T03:52:10;99887.50;;;14.02;96.07
71465;BME280;59274;49.874;9.154;2022-09-09T03:54:35;99896.13;;;13.97;95.82
71465;BME280;59274;49.874;9.154;2022-09-09T03:57:01;99895.38;;;13.93;95.35
71465;BME280;59274;49.874;9.154;2022-09-09T03:59:27;99902.44;;;13.91;95.46
71465;BME280;59274;49.874;9.154;2022-09-09T04:01:53;99897.75;;;13.91;95.73
71465;BME280;59274;49.874;9.154;2022-09-09T04:04:19;99889.19;;;13.89;96.73
71465;BME280;59274;49.874;9.154;2022-09-09T04:06:45;99891.56;;;13.84;96.97
71465;BME280;59274;49.874;9.154;2022-09-09T04:09:11;99899.06;;;13.72;96.87
71465;BME280;59274;49.874;9.154;2022-09-09T04:11:36;99890.91;;;13.65;97.59
71465;BME280;59274;49.874;9.154;2022-09-09T04:14:03;99891.34;;;13.60;98.23
71465;BME280;59274;49.874;9.154;2022-09-09T04:16:31;99891.03;;;13.51;98.88
71465;BME280;59274;49.874;9.154;2022-09-09T04:18:57;99890.72;;;13.42;97.96
71465;BME280;59274;49.874;9.154;2022-09-09T04:21:23;99891.16;;;13.33;98.55
71465;BME280;59274;49.874;9.154;2022-09-09T04:23:48;99898.16;;;13.35;99.88
71465;BME280;59274;49.874;9.154;2022-09-09T04:26:14;99890.03;;;13.27;98.88
71465;BME280;59274;49.874;9.154;2022-09-09T04:28:40;99883.06;;;13.16;98.57
71465;BME280;59274;49.874;9.154;2022-09-09T04:31:08;99885.41;;;13.14;98.62
71465;BME280;59274;49.874;9.154;2022-09-09T04:33:34;99891.22;;;13.12;99.34
71465;BME280;59274;49.874;9.154;2022-09-09T04:36:00;99889.69;;;13.11;99.31
71465;BME280;59274;49.874;9.154;2022-09-09T04:38:26;99899.03;;;13.10;99.64
71465;BME280;59274;49.874;9.154;2022-09-09T04:40:51;99902.53;;;13.11;100.00
71465;BME280;59274;49.874;9.154;2022-09-09T04:43:20;99904.47;;;13.10;100.00
71465;BME280;59274;49.874;9.154;2022-09-09T04:45:50;99908.41;;;13.06;99.45
71465;BME280;59274;49.874;9.154;2022-09-09T04:48:19;99906.06;;;13.04;99.04
71465;BME280;59274;49.874;9.154;2022-09-09T04:53:25;99911.13;;;13.06;99.75
71465;BME280;59274;49.874;9.154;2022-09-09T04:55:52;99914.63;;;13.03;99.31
71465;BME280;59274;49.874;9.154;2022-09-09T04:58:17;99913.47;;;13.07;99.54
71465;BME280;59274;49.874;9.154;2022-09-09T05:00:43;99910.34;;;13.05;100.00
71465;BME280;59274;49.874;9.154;2022-09-09T05:03:08;99915.03;;;13.05;99.97
71465;BME280;59274;49.874;9.154;2022-09-09T05:05:34;99910.34;;;13.02;100.00
71465;BME280;59274;49.874;9.154;2022-09-09T05:08:02;99911.16;;;12.99;99.91
71465;BME280;59274;49.874;9.154;2022-09-09T05:10:27;99910.78;;;13.00;100.00
71465;BME280;59274;49.874;9.154;2022-09-09T05:12:53;99907.28;;;13.00;100.00
71465;BME280;59274;49.874;9.154;2022-09-09T05:15:19;99911.91;;;13.03;100.00
71465;BME280;59274;49.874;9.154;2022-09-09T05:17:46;99906.81;;;13.12;100.00
71465;BME280;59274;49.874;9.154;2022-09-09T05:20:11;99919.63;;;13.22;100.00
71465;BME280;59274;49.874;9.154;2022-09-09T05:22:37;99921.16;;;13.30;100.00
71465;BME280;59274;49.874;9.154;2022-09-09T05:25:03;99919.16;;;13.41;100.00
71465;BME280;59274;49.874;9.154;2022-09-09T05:27:29;99919.44;;;13.57;99.43
71465;BME280;59274;49.874;9.154;2022-09-09T05:29:56;99923.66;;;13.65;98.99
71465;BME280;59274;49.874;9.154;2022-09-09T05:32:23;99927.88;;;13.77;98.75
71465;BME280;59274;49.874;9.154;2022-09-09T05:34:49;99930.56;;;13.84;98.66
71465;BME280;59274;49.874;9.154;2022-09-09T05:37:15;99936.66;;;14.02;98.54
71465;BME280;59274;49.874;9.154;2022-09-09T05:39:41;99935.38;;;14.14;98.19
71465;BME280;59274;49.874;9.154;2022-09-09T05:42:07;99934.13;;;14.26;99.30
71465;BME280;59274;49.874;9.154;2022-09-09T05:44:32;99935.94;;;14.43;98.49
71465;BME280;59274;49.874;9.154;2022-09-09T05:46:58;99944.81;;;14.54;98.48
71465;BME280;59274;49.874;9.154;2022-09-09T05:49:24;99937.97;;;14.73;97.06
71465;BME280;59274;49.874;9.154;2022-09-09T05:51:50;99942.88;;;14.88;95.85
71465;BME280;59274;49.874;9.154;2022-09-09T05:54:16;99952.88;;;15.02;95.80
71465;BME280;59274;49.874;9.154;2022-09-09T05:56:42;99960.44;;;15.21;94.05
71465;BME280;59274;49.874;9.154;2022-09-09T05:59:07;99951.75;;;15.30;93.09
71465;BME280;59274;49.874;9.154;2022-09-09T06:01:35;99953.66;;;15.33;92.71
71465;BME280;59274;49.874;9.154;2022-09-09T06:04:02;99963.25;;;15.48;91.64
71465;BME280;59274;49.874;9.154;2022-09-09T06:06:32;99954.41;;;15.64;88.72
71465;BME280;59274;49.874;9.154;2022-09-09T06:09:03;99953.50;;;15.74;87.50
71465;BME280;59274;49.874;9.154;2022-09-09T06:11:31;99955.78;;;15.79;86.67
71465;BME280;59274;49.874;9.154;2022-09-09T06:13:58;99963.06;;;15.89;86.72
71465;BME280;59274;49.874;9.154;2022-09-09T06:16:26;99957.88;;;15.95;85.57
71465;BME280;59274;49.874;9.154;2022-09-09T06:18:56;99963.66;;;16.00;85.84
71465;BME280;59274;49.874;9.154;2022-09-09T06:21:25;99961.75;;;15.97;85.43
71465;BME280;59274;49.874;9.154;2022-09-09T06:23:51;99960.63;;;15.95;84.88
71465;BME280;59274;49.874;9.154;2022-09-09T06:28:45;99963.72;;;15.97;84.91
71465;BME280;59274;49.874;9.154;2022-09-09T06:31:12;99972.25;;;16.02;85.51
71465;BME280;59274;49.874;9.154;2022-09-09T06:33:39;99961.41;;;15.95;85.72
71465;BME280;59274;49.874;9.154;2022-09-09T06:36:11;99966.75;;;16.02;82.62
71465;BME280;59274;49.874;9.154;2022-09-09T06:38:39;99965.09;;;16.09;84.39
71465;BME280;59274;49.874;9.154;2022-09-09T06:41:05;99953.50;;;16.24;82.06
71465;BME280;59274;49.874;9.154;2022-09-09T06:43:31;99963.44;;;16.38;80.59
71465;BME280;59274;49.874;9.154;2022-09-09T06:45:59;99966.53;;;16.40;79.18
71465;BME280;59274;49.874;9.154;2022-09-09T06:48:25;99965.28;;;16.44;79.87
71465;BME280;59274;49.874;9.154;2022-09-09T06:51:06;99961.19;;;16.33;81.21
71465;BME280;59274;49.874;9.154;2022-09-09T06:53:34;99961.09;;;16.36;80.29
71465;BME280;59274;49.874;9.154;2022-09-09T06:58:38;99965.66;;;16.47;79.14
71465;BME280;59274;49.874;9.154;2022-09-09T07:01:08;99968.19;;;16.57;79.38
71465;BME280;59274;49.874;9.154;2022-09-09T07:03:34;99964.09;;;16.69;78.86
71465;BME280;59274;49.874;9.154;2022-09-09T07:06:03;99961.41;;;16.85;77.33
71465;BME280;59274;49.874;9.154;2022-09-09T07:08:29;99971.97;;;17.06;78.39
71465;BME280;59274;49.874;9.154;2022-09-09T07:11:05;99966.50;;;17.26;76.20
71465;BME280;59274;49.874;9.154;2022-09-09T07:13:34;99966.13;;;17.44;75.33
71465;BME280;59274;49.874;9.154;2022-09-09T07:16:11;99965.59;;;17.49;73.81
71465;BME280;59274;49.874;9.154;2022-09-09T07:18:37;99969.63;;;17.64;74.61
71465;BME280;59274;49.874;9.154;2022-09-09T07:21:03;99962.59;;;17.79;73.79
71465;BME280;59274;49.874;9.154;2022-09-09T07:23:30;99973.53;;;17.83;72.40
71465;BME280;59274;49.874;9.154;2022-09-09T07:25:56;99971.19;;;17.97;72.05
71465;BME280;59274;49.874;9.154;2022-09-09T07:28:25;99982.97;;;18.14;71.05
71465;BME280;59274;49.874;9.154;2022-09-09T07:30:59;99976.09;;;18.22;71.11
71465;BME280;59274;49.874;9.154;2022-09-09T07:33:29;99982.19;;;18.30;70.27
71465;BME280;59274;49.874;9.154;2022-09-09T07:36:23;99978.78;;;18.26;69.79
71465;BME280;59274;49.874;9.154;2022-09-09T07:38:53;99982.81;;;18.37;70.27
71465;BME280;59274;49.874;9.154;2022-09-09T07:41:32;99987.06;;;18.55;69.42
71465;BME280;59274;49.874;9.154;2022-09-09T07:44:03;99979.88;;;18.61;69.38
71465;BME280;59274;49.874;9.154;2022-09-09T07:46:28;99987.44;;;18.57;68.38
71465;BME280;59274;49.874;9.154;2022-09-09T07:48:56;99985.53;;;18.54;68.57
71465;BME280;59274;49.874;9.154;2022-09-09T07:51:30;99986.06;;;18.65;69.30
71465;BME280;59274;49.874;9.154;2022-09-09T07:53:58;99989.03;;;18.70;67.89
71465;BME280;59274;49.874;9.154;2022-09-09T07:56:28;99993.28;;;18.59;68.65
71465;BME280;59274;49.874;9.154;2022-09-09T07:58:55;99981.84;;;18.60;68.08
71465;BME280;59274;49.874;9.154;2022-09-09T08:01:28;99985.09;;;18.55;68.54
71465;BME280;59274;49.874;9.154;2022-09-09T08:03:55;99989.50;;;18.53;68.55
71465;BME280;59274;49.874;9.154;2022-09-09T08:06:24;99984.50;;;18.64;68.39
71465;BME280;59274;49.874;9.154;2022-09-09T08:08:51;99995.84;;;18.66;67.83
71465;BME280;59274;49.874;9.154;2022-09-09T08:11:16;99991.22;;;18.63;67.92
71465;BME280;59274;49.874;9.154;2022-09-09T08:13:43;99994.53;;;18.70;68.05
71465;BME280;59274;49.874;9.154;2022-09-09T08:16:11;100004.28;;;18.75;67.96
71465;BME280;59274;49.874;9.154;2022-09-09T08:18:37;100004.78;;;18.70;67.97
71465;BME280;59274;49.874;9.154;2022-09-09T08:21:16;100000.56;;;18.82;69.01
71465;BME280;59274;49.874;9.154;2022-09-09T08:23:44;100003.53;;;18.87;70.14
71465;BME280;59274;49.874;9.154;2022-09-09T08:26:11;99999.91;;;18.90;70.27
71465;BME280;59274;49.874;9.154;2022-09-09T08:28:38;100004.94;;;18.79;71.64
71465;BME280;59274;49.874;9.154;2022-09-09T08:31:12;100004.28;;;18.75;69.26
71465;BME280;59274;49.874;9.154;2022-09-09T08:33:38;100007.22;;;18.68;70.41
71465;BME280;59274;49.874;9.154;2022-09-09T08:36:05;100009.06;;;18.55;69.39
71465;BME280;59274;49.874;9.154;2022-09-09T08:38:31;100013.22;;;18.47;69.67
71465;BME280;59274;49.874;9.154;2022-09-09T08:43:46;100010.34;;;18.83;69.08
71465;BME280;59274;49.874;9.154;2022-09-09T08:49:49;100013.59;;;19.23;67.47
71465;BME280;59274;49.874;9.154;2022-09-09T08:52:37;100018.31;;;19.22;68.40
71465;BME280;59274;49.874;9.154;2022-09-09T08:55:24;100016.56;;;18.99;67.23
71465;BME280;59274;49.874;9.154;2022-09-09T08:57:55;100021.50;;;18.92;67.08
71465;BME280;59274;49.874;9.154;2022-09-09T09:00:21;100017.72;;;18.86;67.60
71465;BME280;59274;49.874;9.154;2022-09-09T09:05:47;100014.31;;;19.10;67.27
71465;BME280;59274;49.874;9.154;2022-09-09T09:08:28;100003.78;;;19.22;66.70
71465;BME280;59274;49.874;9.154;2022-09-09T09:10:57;100006.56;;;19.34;66.04
71465;BME280;59274;49.874;9.154;2022-09-09T09:13:28;99999.09;;;19.47;64.49
71465;BME280;59274;49.874;9.154;2022-09-09T09:16:02;100011.59;;;19.77;65.16
71465;BME280;59274;49.874;9.154;2022-09-09T09:18:31;100014.81;;;19.88;62.66
71465;BME280;59274;49.874;9.154;2022-09-09T09:23:56;100012.16;;;19.98;62.84
71465;BME280;59274;49.874;9.154;2022-09-09T09:26:27;100010.06;;;20.14;62.46
71465;BME280;59274;49.874;9.154;2022-09-09T09:28:56;100002.44;;;20.44;61.49
71465;BME280;59274;49.874;9.154;2022-09-09T09:31:22;99999.47;;;20.38;59.06
71465;BME280;59274;49.874;9.154;2022-09-09T09:33:56;99993.38;;;20.30;60.89
71465;BME280;59274;49.874;9.154;2022-09-09T09:36:44;100005.53;;;20.08;60.79
71465;BME280;59274;49.874;9.154;2022-09-09T09:39:24;100002.22;;;20.13;60.54
71465;BME280;59274;49.874;9.154;2022-09-09T09:41:51;100002.13;;;20.04;60.31
71465;BME280;59274;49.874;9.154;2022-09-09T09:44:28;100001.13;;;19.98;60.64
71465;BME280;59274;49.874;9.154;2022-09-09T09:47:06;99997.91;;;20.12;59.88
71465;BME280;59274;49.874;9.154;2022-09-09T09:49:32;99991.06;;;20.42;60.15
71465;BME280;59274;49.874;9.154;2022-09-09T09:52:03;99983.91;;;20.31;59.69
71465;BME280;59274;49.874;9.154;2022-09-09T09:54:31;99990.84;;;20.23;61.25
71465;BME280;59274;49.874;9.154;2022-09-09T09:57:28;99984.34;;;20.30;58.71
71465;BME280;59274;49.874;9.154;2022-09-09T10:00:24;99989.97;;;20.74;58.85
71465;BME280;59274;49.874;9.154;2022-09-09T10:02:49;100008.09;;;20.75;58.69
71465;BME280;59274;49.874;9.154;2022-09-09T10:07:44;99996.47;;;20.20;58.44
71465;BME280;59274;49.874;9.154;2022-09-09T10:10:22;99996.63;;;19.78;59.60
71465;BME280;59274;49.874;9.154;2022-09-09T10:21:42;99996.72;;;19.62;60.42
71465;BME280;59274;49.874;9.154;2022-09-09T10:24:24;99995.63;;;19.72;61.65
71465;BME280;59274;49.874;9.154;2022-09-09T10:32:48;99983.88;;;20.79;58.32
71465;BME280;59274;49.874;9.154;2022-09-09T10:35:33;99976.47;;;21.10;56.46
71465;BME280;59274;49.874;9.154;2022-09-09T10:40:33;99975.47;;;21.17;55.42
71465;BME280;59274;49.874;9.154;2022-09-09T10:46:15;99979.06;;;21.14;53.92
71465;BME280;59274;49.874;9.154;2022-09-09T10:49:03;99972.78;;;21.35;52.97
71465;BME280;59274;49.874;9.154;2022-09-09T10:55:08;99965.66;;;21.03;54.52
71465;BME280;59274;49.874;9.154;2022-09-09T10:57:44;99966.63;;;21.31;53.03
71465;BME280;59274;49.874;9.154;2022-09-09T11:02:41;99957.69;;;21.05;52.83
71465;BME280;59274;49.874;9.154;2022-09-09T11:05:17;99971.56;;;20.92;54.42
71465;BME280;59274;49.874;9.154;2022-09-09T11:07:47;99964.16;;;21.11;54.80
71465;BME280;59274;49.874;9.154;2022-09-09T11:12:49;99965.13;;;21.39;54.75
71465;BME280;59274;49.874;9.154;2022-09-09T11:15:20;99965.28;;;21.66;54.56
71465;BME280;59274;49.874;9.154;2022-09-09T11:17:54;99963.50;;;21.51;54.63
71465;BME280;59274;49.874;9.154;2022-09-09T11:20:22;99962.97;;;21.65;55.89
71465;BME280;59274;49.874;9.154;2022-09-09T11:22:57;99954.72;;;21.74;53.64
71465;BME280;59274;49.874;9.154;2022-09-09T11:44:38;99977.41;;;21.69;50.82
71465;BME280;59274;49.874;9.154;2022-09-09T11:47:26;99976.34;;;21.75;50.19
71465;BME280;59274;49.874;9.154;2022-09-09T11:49:55;99968.44;;;21.86;50.33
71465;BME280;59274;49.874;9.154;2022-09-09T11:52:38;99977.78;;;22.29;49.03
71465;BME280;59274;49.874;9.154;2022-09-09T11:58:17;99967.69;;;22.99;47.12
71465;BME280;59274;49.874;9.154;2022-09-09T12:00:47;99963.09;;;23.47;47.02
71465;BME280;59274;49.874;9.154;2022-09-09T12:03:32;99968.97;;;23.40;47.48
71465;BME280;59274;49.874;9.154;2022-09-09T12:06:08;99965.97;;;23.20;45.73
71465;BME280;59274;49.874;9.154;2022-09-09T12:08:34;99969.19;;;23.09;46.35
71465;BME280;59274;49.874;9.154;2022-09-09T12:11:02;99963.75;;;23.33;45.75
71465;BME280;59274;49.874;9.154;2022-09-09T12:13:31;99968.72;;;23.29;45.04
71465;BME280;59274;49.874;9.154;2022-09-09T12:15:58;99962.59;;;23.16;46.61
71465;BME280;59274;49.874;9.154;2022-09-09T12:23:55;99954.53;;;23.36;44.61
71465;BME280;59274;49.874;9.154;2022-09-09T12:26:36;99958.97;;;23.42;46.25
71465;BME280;59274;49.874;9.154;2022-09-09T12:31:46;99948.09;;;23.30;46.65
71465;BME280;59274;49.874;9.154;2022-09-09T12:36:41;99945.34;;;23.12;46.60
71465;BME280;59274;49.874;9.154;2022-09-09T12:39:29;99952.81;;;23.48;45.32
71465;BME280;59274;49.874;9.154;2022-09-09T12:41:56;99942.53;;;23.30;45.59
71465;BME280;59274;49.874;9.154;2022-09-09T12:44:25;99941.69;;;22.87;46.96
71465;BME280;59274;49.874;9.154;2022-09-09T12:46:54;99941.84;;;22.56;49.05
71465;BME280;59274;49.874;9.154;2022-09-09T12:52:06;99937.69;;;22.43;48.34
71465;BME280;59274;49.874;9.154;2022-09-09T12:54:36;99932.75;;;22.47;48.27
71465;BME280;59274;49.874;9.154;2022-09-09T12:57:04;99932.44;;;22.54;48.82
71465;BME280;59274;49.874;9.154;2022-09-09T12:59:39;99937.03;;;22.39;48.30
71465;BME280;59274;49.874;9.154;2022-09-09T13:02:21;99939.47;;;22.09;49.15
71465;BME280;59274;49.874;9.154;2022-09-09T13:04:47;99935.25;;;21.86;48.26
71465;BME280;59274;49.874;9.154;2022-09-09T13:07:13;99938.00;;;21.46;48.87
71465;BME280;59274;49.874;9.154;2022-09-09T13:09:40;99940.34;;;21.26;49.15
71465;BME280;59274;49.874;9.154;2022-09-09T13:12:13;99937.59;;;21.26;49.52
71465;BME280;59274;49.874;9.154;2022-09-09T13:14:43;99937.19;;;21.15;49.60
71465;BME280;59274;49.874;9.154;2022-09-09T13:17:24;99930.91;;;20.93;49.05
71465;BME280;59274;49.874;9.154;2022-09-09T13:19:51;99933.59;;;20.84;50.15
71465;BME280;59274;49.874;9.154;2022-09-09T13:27:37;99933.41;;;21.00;50.85
71465;BME280;59274;49.874;9.154;2022-09-09T13:32:59;99930.31;;;20.54;53.17
71465;BME280;59274;49.874;9.154;2022-09-09T13:35:26;99933.00;;;20.45;53.40
71465;BME280;59274;49.874;9.154;2022-09-09T13:37:51;99942.31;;;20.39;55.29
71465;BME280;59274;49.874;9.154;2022-09-09T13:40:20;99939.50;;;20.51;54.92
71465;BME280;59274;49.874;9.154;2022-09-09T13:42:47;99936.34;;;20.62;53.56
71465;BME280;59274;49.874;9.154;2022-09-09T13:45:21;99933.31;;;20.82;53.35
71465;BME280;59274;49.874;9.154;2022-09-09T13:47:47;99939.00;;;21.09;54.48
71465;BME280;59274;49.874;9.154;2022-09-09T13:50:20;99933.78;;;21.11;55.74
71465;BME280;59274;49.874;9.154;2022-09-09T13:52:47;99939.13;;;21.05;53.03
71465;BME280;59274;49.874;9.154;2022-09-09T13:55:14;99929.28;;;21.17;53.24
71465;BME280;59274;49.874;9.154;2022-09-09T13:57:59;99929.78;;;21.03;51.71
71465;BME280;59274;49.874;9.154;2022-09-09T14:00:32;99938.34;;;20.83;51.27
71465;BME280;59274;49.874;9.154;2022-09-09T14:02:58;99933.50;;;20.87;49.74
71465;BME280;59274;49.874;9.154;2022-09-09T14:05:29;99936.78;;;20.95;52.25
71465;BME280;59274;49.874;9.154;2022-09-09T14:07:55;99949.63;;;20.89;53.38
71465;BME280;59274;49.874;9.154;2022-09-09T14:10:21;99953.91;;;20.90;52.90
71465;BME280;59274;49.874;9.154;2022-09-09T14:12:47;99963.50;;;20.63;54.46
71465;BME280;59274;49.874;9.154;2022-09-09T14:15:13;99958.28;;;20.44;54.07
71465;BME280;59274;49.874;9.154;2022-09-09T14:17:39;99962.47;;;20.48;54.23
71465;BME280;59274;49.874;9.154;2022-09-09T14:20:08;99969.34;;;20.31;51.76
71465;BME280;59274;49.874;9.154;2022-09-09T14:22:37;99972.75;;;20.22;51.51
71465;BME280;59274;49.874;9.154;2022-09-09T14:25:05;99973.88;;;20.12;51.60
71465;BME280;59274;49.874;9.154;2022-09-09T14:27:31;99970.94;;;19.94;51.70
71465;BME280;59274;49.874;9.154;2022-09-09T14:29:58;99970.47;;;19.83;51.83
71465;BME280;59274;49.874;9.154;2022-09-09T14:32:23;99967.84;;;19.79;52.30
71465;BME280;59274;49.874;9.154;2022-09-09T14:34:49;99978.75;;;19.83;53.18
71465;BME280;59274;49.874;9.154;2022-09-09T14:37:16;99985.25;;;19.76;53.21
71465;BME280;59274;49.874;9.154;2022-09-09T14:39:42;99982.56;;;19.47;54.89
71465;BME280;59274;49.874;9.154;2022-09-09T14:42:12;99979.78;;;19.35;57.54
71465;BME280;59274;49.874;9.154;2022-09-09T14:44:38;99986.25;;;19.15;60.51
71465;BME280;59274;49.874;9.154;2022-09-09T14:47:07;99988.28;;;18.99;66.49
71465;BME280;59274;49.874;9.154;2022-09-09T14:49:36;99976.28;;;19.05;66.41
71465;BME280;59274;49.874;9.154;2022-09-09T14:52:03;99960.28;;;19.29;68.90
71465;BME280;59274;49.874;9.154;2022-09-09T14:54:29;99963.63;;;19.49;63.95
71465;BME280;59274;49.874;9.154;2022-09-09T14:56:56;99954.16;;;19.50;66.21
71465;BME280;59274;49.874;9.154;2022-09-09T14:59:24;99953.28;;;19.53;69.30
71465;BME280;59274;49.874;9.154;2022-09-09T15:01:50;99950.53;;;19.79;68.41
71465;BME280;59274;49.874;9.154;2022-09-09T15:04:15;99945.66;;;20.08;67.05
71465;BME280;59274;49.874;9.154;2022-09-09T15:06:42;99930.66;;;20.09;70.24
71465;BME280;59274;49.874;9.154;2022-09-09T15:09:10;99925.75;;;20.26;67.82
71465;BME280;59274;49.874;9.154;2022-09-09T15:11:36;99941.88;;;20.62;66.78
71465;BME280;59274;49.874;9.154;2022-09-09T15:14:04;99933.00;;;21.10;64.85
71465;BME280;59274;49.874;9.154;2022-09-09T15:16:30;99929.28;;;21.17;60.16
71465;BME280;59274;49.874;9.154;2022-09-09T15:19:00;99926.34;;;21.21;61.12
71465;BME280;59274;49.874;9.154;2022-09-09T15:21:29;99930.06;;;20.83;63.40
71465;BME280;59274;49.874;9.154;2022-09-09T15:23:56;99933.84;;;20.55;62.60
71465;BME280;59274;49.874;9.154;2022-09-09T15:26:22;99926.84;;;20.41;65.88
71465;BME280;59274;49.874;9.154;2022-09-09T15:28:48;99933.25;;;20.38;63.51
71465;BME280;59274;49.874;9.154;2022-09-09T15:33:51;99927.47;;;19.98;64.29